TimeCDT,TemperatureF,Dew PointF,Humidity,Sea Level PressureIn,VisibilityMPH,Wind Direction,Wind SpeedMPH,Gust SpeedMPH,PrecipitationIn,Events,Conditions,WindDirDegrees,DateUTC
12:57 AM,66.9,63.1,88,30.15,10.0,NE,4.6,-,N/A,,Mostly Cloudy,50,2012-10-04 05:57:00
1:56 AM,67.5,64.6,90,30.15,10.0,NNE,4.6,-,N/A,,Mostly Cloudy,20,2012-10-04 06:56:00
2:55 AM,65.7,64.0,94,30.15,10.0,North,2.3,-,N/A,,Scattered Clouds,10,2012-10-04 07:55:00
3:56 AM,64.4,63.0,95,30.17,10.0,North,4.6,-,N/A,,Scattered Clouds,10,2012-10-04 08:56:00
4:38 AM,64.4,62.6,94,30.17,6.0,North,3.5,-,N/A,,Scattered Clouds,10,2012-10-04 09:38:00
4:57 AM,63.9,62.6,96,30.19,6.0,NNE,3.5,-,N/A,,Mostly Cloudy,30,2012-10-04 09:57:00
5:13 AM,64.4,62.6,94,30.18,5.0,North,3.5,-,N/A,,Overcast,360,2012-10-04 10:13:00
5:28 AM,64.4,62.6,94,30.18,7.0,North,3.5,-,N/A,,Overcast,360,2012-10-04 10:28:00
5:46 AM,64.4,64.4,100,30.18,2.5,NNW,3.5,-,N/A,,Overcast,330,2012-10-04 10:46:00
5:51 AM,64.4,64.4,100,30.18,1.5,NNW,3.5,-,N/A,,Overcast,330,2012-10-04 10:51:00
5:57 AM,64.9,64.0,97,30.20,1.2,North,3.5,-,N/A,,Overcast,10,2012-10-04 10:57:00
6:20 AM,64.4,64.4,100,30.20,0.8,North,3.5,-,N/A,,Overcast,360,2012-10-04 11:20:00
6:35 AM,64.4,64.4,100,30.20,0.5,North,2.3,-,N/A,Fog,Fog,10,2012-10-04 11:35:00
6:55 AM,64.8,64.2,98,30.22,0.5,NNE,3.5,-,N/A,Fog,Fog,20,2012-10-04 11:55:00
7:55 AM,66.0,65.5,98,30.22,0.8,NE,5.8,-,N/A,,Overcast,40,2012-10-04 12:55:00
8:20 AM,66.2,66.2,100,30.22,0.8,NNE,5.8,-,N/A,,Overcast,30,2012-10-04 13:20:00
8:55 AM,67.1,66.2,97,30.23,0.5,North,8.1,-,N/A,Fog,Fog,10,2012-10-04 13:55:00
9:12 AM,68.0,66.2,94,30.21,0.8,North,6.9,-,N/A,,Overcast,350,2012-10-04 14:12:00
9:22 AM,68.0,66.2,94,30.21,1.0,North,6.9,-,N/A,,Overcast,360,2012-10-04 14:22:00
9:35 AM,68.0,66.2,94,30.22,2.5,North,8.1,-,N/A,,Overcast,10,2012-10-04 14:35:00
9:38 AM,68.0,66.2,94,30.22,3.0,North,9.2,-,N/A,,Overcast,10,2012-10-04 14:38:00
9:47 AM,69.8,66.2,88,30.22,5.0,North,5.8,-,N/A,,Overcast,10,2012-10-04 14:47:00
9:55 AM,69.8,66.4,89,30.23,6.0,NNE,6.9,-,N/A,,Mostly Cloudy,30,2012-10-04 14:55:00
10:02 AM,71.6,66.2,83,30.22,10.0,NNE,8.1,-,N/A,,Mostly Cloudy,20,2012-10-04 15:02:00
10:14 AM,71.6,66.2,83,30.22,10.0,NNE,8.1,-,N/A,,Mostly Cloudy,30,2012-10-04 15:14:00
10:55 AM,77.0,68.0,74,30.23,10.0,NNE,6.9,-,N/A,,Mostly Cloudy,20,2012-10-04 15:55:00
11:55 AM,80.2,67.6,65,30.22,10.0,NNE,5.8,-,N/A,,Mostly Cloudy,30,2012-10-04 16:55:00
12:55 PM,82.6,62.4,50,30.19,10.0,NE,9.2,-,N/A,,Mostly Cloudy,50,2012-10-04 17:55:00
1:56 PM,84.9,62.1,46,30.17,10.0,NNE,9.2,-,N/A,,Mostly Cloudy,30,2012-10-04 18:56:00
2:55 PM,85.3,58.3,40,30.17,10.0,ENE,4.6,-,N/A,,Mostly Cloudy,60,2012-10-04 19:55:00
3:55 PM,82.0,69.4,65,30.16,10.0,Calm,Calm,-,N/A,,Mostly Cloudy,0,2012-10-04 20:55:00
4:57 PM,79.9,70.2,72,30.14,10.0,SSE,5.8,-,N/A,,Mostly Cloudy,150,2012-10-04 21:57:00
5:56 PM,77.9,70.9,79,30.14,10.0,ESE,3.5,-,N/A,,Mostly Cloudy,120,2012-10-04 22:56:00
6:56 PM,75.7,71.1,85,30.15,10.0,WNW,2.3,-,N/A,,Mostly Cloudy,290,2012-10-04 23:56:00
7:55 PM,75.6,68.0,77,30.17,10.0,NNE,3.5,-,N/A,,Scattered Clouds,30,2012-10-05 00:55:00
8:57 PM,75.4,69.8,83,30.17,10.0,NNE,3.5,-,N/A,,Mostly Cloudy,20,2012-10-05 01:57:00
9:55 PM,73.8,69.8,87,30.18,10.0,NE,2.3,-,N/A,,Mostly Cloudy,50,2012-10-05 02:55:00
10:20 PM,73.4,69.8,88,30.17,10.0,ENE,3.5,-,N/A,,Mostly Cloudy,70,2012-10-05 03:20:00
10:55 PM,73.4,70.0,89,30.18,8.0,NE,3.5,-,N/A,,Mostly Cloudy,50,2012-10-05 03:55:00
11:55 PM,72.1,69.6,92,30.16,6.0,NNE,4.6,-,N/A,,Mostly Cloudy,20,2012-10-05 04:55:00